sensor_id;sensor_type;location;lat;lon;timestamp;P1;durP1;ratioP1;P2;durP2;ratioP2
6763;SDS011;47432;48.760;9.178;2023-05-16T00:01:13;18.97;;;9.00;;
6763;SDS011;47432;48.760;9.178;2023-05-16T00:03:40;17.40;;;8.90;;
6763;SDS011;47432;48.760;9.178;2023-05-16T00:06:07;19.30;;;10.30;;
6763;SDS011;47432;48.760;9.178;2023-05-16T00:08:33;20.93;;;10.47;;
6763;SDS011;47432;48.760;9.178;2023-05-16T00:10:59;22.20;;;11.90;;
6763;SDS011;47432;48.760;9.178;2023-05-16T00:13:25;21.77;;;11.73;;
6763;SDS011;47432;48.760;9.178;2023-05-16T00:15:52;23.20;;;12.50;;
6763;SDS011;47432;48.760;9.178;2023-05-16T00:18:19;22.27;;;11.63;;
6763;SDS011;47432;48.760;9.178;2023-05-16T00:20:46;21.27;;;11.77;;
6763;SDS011;47432;48.760;9.178;2023-05-16T00:23:12;24.07;;;12.30;;
6763;SDS011;47432;48.760;9.178;2023-05-16T00:25:39;22.37;;;12.70;;
6763;SDS011;47432;48.760;9.178;2023-05-16T00:28:05;22.70;;;10.63;;
6763;SDS011;47432;48.760;9.178;2023-05-16T00:30:32;22.93;;;12.83;;
6763;SDS011;47432;48.760;9.178;2023-05-16T00:32:57;21.93;;;11.00;;
6763;SDS011;47432;48.760;9.178;2023-05-16T00:35:23;21.60;;;11.67;;
6763;SDS011;47432;48.760;9.178;2023-05-16T00:37:49;25.33;;;13.40;;
6763;SDS011;47432;48.760;9.178;2023-05-16T00:40:15;24.43;;;13.30;;
6763;SDS011;47432;48.760;9.178;2023-05-16T00:42:44;25.57;;;14.90;;
6763;SDS011;47432;48.760;9.178;2023-05-16T00:45:10;27.83;;;14.53;;
6763;SDS011;47432;48.760;9.178;2023-05-16T00:47:36;29.13;;;15.77;;
6763;SDS011;47432;48.760;9.178;2023-05-16T00:50:02;25.80;;;14.47;;
6763;SDS011;47432;48.760;9.178;2023-05-16T00:52:28;25.60;;;15.20;;
6763;SDS011;47432;48.760;9.178;2023-05-16T00:54:54;30.70;;;17.33;;
6763;SDS011;47432;48.760;9.178;2023-05-16T00:57:21;31.60;;;17.70;;
6763;SDS011;47432;48.760;9.178;2023-05-16T00:59:47;30.10;;;18.10;;
6763;SDS011;47432;48.760;9.178;2023-05-16T01:02:13;33.13;;;19.73;;
6763;SDS011;47432;48.760;9.178;2023-05-16T01:04:40;30.07;;;17.53;;
6763;SDS011;47432;48.760;9.178;2023-05-16T01:07:06;29.77;;;17.23;;
6763;SDS011;47432;48.760;9.178;2023-05-16T01:09:35;30.53;;;17.67;;
6763;SDS011;47432;48.760;9.178;2023-05-16T01:12:13;29.83;;;17.30;;
6763;SDS011;47432;48.760;9.178;2023-05-16T01:14:45;31.53;;;18.73;;
6763;SDS011;47432;48.760;9.178;2023-05-16T01:20:15;40.53;;;24.60;;
6763;SDS011;47432;48.760;9.178;2023-05-16T01:27:57;44.50;;;24.70;;
6763;SDS011;47432;48.760;9.178;2023-05-16T01:30:23;38.23;;;22.87;;
6763;SDS011;47432;48.760;9.178;2023-05-16T01:32:49;39.83;;;23.07;;
6763;SDS011;47432;48.760;9.178;2023-05-16T01:35:15;41.37;;;24.43;;
6763;SDS011;47432;48.760;9.178;2023-05-16T01:37:45;41.63;;;23.97;;
6763;SDS011;47432;48.760;9.178;2023-05-16T01:40:20;42.90;;;24.27;;
6763;SDS011;47432;48.760;9.178;2023-05-16T01:42:47;42.57;;;25.37;;
6763;SDS011;47432;48.760;9.178;2023-05-16T01:45:19;44.17;;;24.47;;
6763;SDS011;47432;48.760;9.178;2023-05-16T01:48:09;50.20;;;27.60;;
6763;SDS011;47432;48.760;9.178;2023-05-16T01:50:41;43.97;;;24.57;;
6763;SDS011;47432;48.760;9.178;2023-05-16T01:53:10;49.77;;;26.90;;
6763;SDS011;47432;48.760;9.178;2023-05-16T01:55:46;46.30;;;26.50;;
6763;SDS011;47432;48.760;9.178;2023-05-16T01:58:14;49.70;;;26.40;;
6763;SDS011;47432;48.760;9.178;2023-05-16T02:00:40;41.40;;;24.90;;
6763;SDS011;47432;48.760;9.178;2023-05-16T02:03:06;47.17;;;28.73;;
6763;SDS011;47432;48.760;9.178;2023-05-16T02:05:33;55.27;;;28.93;;
6763;SDS011;47432;48.760;9.178;2023-05-16T02:07:59;57.60;;;31.03;;
6763;SDS011;47432;48.760;9.178;2023-05-16T02:10:26;46.53;;;27.77;;
6763;SDS011;47432;48.760;9.178;2023-05-16T02:12:52;49.53;;;29.27;;
6763;SDS011;47432;48.760;9.178;2023-05-16T02:15:17;59.47;;;30.03;;
6763;SDS011;47432;48.760;9.178;2023-05-16T02:17:44;48.83;;;26.33;;
6763;SDS011;47432;48.760;9.178;2023-05-16T02:20:11;51.00;;;28.60;;
6763;SDS011;47432;48.760;9.178;2023-05-16T02:22:37;51.70;;;29.90;;
6763;SDS011;47432;48.760;9.178;2023-05-16T02:25:06;48.77;;;28.50;;
6763;SDS011;47432;48.760;9.178;2023-05-16T02:27:33;49.80;;;28.40;;
6763;SDS011;47432;48.760;9.178;2023-05-16T02:29:59;51.13;;;28.80;;
6763;SDS011;47432;48.760;9.178;2023-05-16T02:32:25;47.07;;;27.23;;
6763;SDS011;47432;48.760;9.178;2023-05-16T02:34:51;49.17;;;28.20;;
6763;SDS011;47432;48.760;9.178;2023-05-16T02:37:17;47.83;;;28.30;;
6763;SDS011;47432;48.760;9.178;2023-05-16T02:39:43;50.50;;;27.70;;
6763;SDS011;47432;48.760;9.178;2023-05-16T02:42:09;51.03;;;29.00;;
6763;SDS011;47432;48.760;9.178;2023-05-16T02:44:35;48.00;;;28.67;;
6763;SDS011;47432;48.760;9.178;2023-05-16T02:47:01;53.77;;;30.77;;
6763;SDS011;47432;48.760;9.178;2023-05-16T02:49:27;52.43;;;29.47;;
6763;SDS011;47432;48.760;9.178;2023-05-16T02:51:53;50.50;;;29.60;;
6763;SDS011;47432;48.760;9.178;2023-05-16T02:54:19;55.47;;;29.50;;
6763;SDS011;47432;48.760;9.178;2023-05-16T02:56:45;55.50;;;30.43;;
6763;SDS011;47432;48.760;9.178;2023-05-16T02:59:11;51.93;;;30.07;;
6763;SDS011;47432;48.760;9.178;2023-05-16T03:01:37;55.47;;;29.97;;
6763;SDS011;47432;48.760;9.178;2023-05-16T03:04:03;52.73;;;29.07;;
6763;SDS011;47432;48.760;9.178;2023-05-16T03:06:29;58.63;;;31.70;;
6763;SDS011;47432;48.760;9.178;2023-05-16T03:08:55;56.50;;;31.27;;
6763;SDS011;47432;48.760;9.178;2023-05-16T03:11:24;49.87;;;27.37;;
6763;SDS011;47432;48.760;9.178;2023-05-16T03:13:50;48.40;;;28.47;;
6763;SDS011;47432;48.760;9.178;2023-05-16T03:16:16;52.30;;;28.80;;
6763;SDS011;47432;48.760;9.178;2023-05-16T03:18:42;58.30;;;31.10;;
6763;SDS011;47432;48.760;9.178;2023-05-16T03:21:09;53.17;;;29.13;;
6763;SDS011;47432;48.760;9.178;2023-05-16T03:23:35;55.90;;;29.70;;
6763;SDS011;47432;48.760;9.178;2023-05-16T03:26:01;53.90;;;30.97;;
6763;SDS011;47432;48.760;9.178;2023-05-16T03:28:26;58.03;;;33.30;;
6763;SDS011;47432;48.760;9.178;2023-05-16T03:30:52;53.53;;;30.37;;
6763;SDS011;47432;48.760;9.178;2023-05-16T03:33:18;63.70;;;32.23;;
6763;SDS011;47432;48.760;9.178;2023-05-16T03:35:44;57.70;;;31.20;;
6763;SDS011;47432;48.760;9.178;2023-05-16T03:38:11;60.87;;;33.40;;
6763;SDS011;47432;48.760;9.178;2023-05-16T03:40:37;60.00;;;32.90;;
6763;SDS011;47432;48.760;9.178;2023-05-16T03:43:03;60.47;;;33.50;;
6763;SDS011;47432;48.760;9.178;2023-05-16T03:45:29;69.50;;;36.33;;
6763;SDS011;47432;48.760;9.178;2023-05-16T03:47:55;58.80;;;31.43;;
6763;SDS011;47432;48.760;9.178;2023-05-16T03:50:21;64.83;;;34.20;;
6763;SDS011;47432;48.760;9.178;2023-05-16T03:52:47;60.57;;;33.90;;
6763;SDS011;47432;48.760;9.178;2023-05-16T03:55:13;65.27;;;34.10;;
6763;SDS011;47432;48.760;9.178;2023-05-16T03:57:40;60.53;;;32.87;;
6763;SDS011;47432;48.760;9.178;2023-05-16T04:00:06;70.50;;;36.00;;
6763;SDS011;47432;48.760;9.178;2023-05-16T04:02:32;68.00;;;34.90;;
6763;SDS011;47432;48.760;9.178;2023-05-16T04:04:58;68.97;;;36.67;;
6763;SDS011;47432;48.760;9.178;2023-05-16T04:07:24;72.07;;;37.73;;
6763;SDS011;47432;48.760;9.178;2023-05-16T04:09:51;62.83;;;35.03;;
6763;SDS011;47432;48.760;9.178;2023-05-16T04:12:17;67.77;;;34.17;;
6763;SDS011;47432;48.760;9.178;2023-05-16T04:14:43;66.90;;;36.30;;
6763;SDS011;47432;48.760;9.178;2023-05-16T04:17:09;71.70;;;37.47;;
6763;SDS011;47432;48.760;9.178;2023-05-16T04:19:36;79.33;;;40.50;;
6763;SDS011;47432;48.760;9.178;2023-05-16T04:22:02;67.73;;;36.90;;
6763;SDS011;47432;48.760;9.178;2023-05-16T04:24:31;71.47;;;36.50;;
6763;SDS011;47432;48.760;9.178;2023-05-16T04:26:57;74.47;;;36.10;;
6763;SDS011;47432;48.760;9.178;2023-05-16T04:29:23;67.20;;;34.53;;
6763;SDS011;47432;48.760;9.178;2023-05-16T04:31:49;70.90;;;36.63;;
6763;SDS011;47432;48.760;9.178;2023-05-16T04:34:15;69.40;;;37.10;;
6763;SDS011;47432;48.760;9.178;2023-05-16T04:36:42;79.97;;;37.10;;
6763;SDS011;47432;48.760;9.178;2023-05-16T04:39:10;64.70;;;33.97;;
6763;SDS011;47432;48.760;9.178;2023-05-16T04:41:36;66.53;;;33.93;;
6763;SDS011;47432;48.760;9.178;2023-05-16T04:44:02;65.10;;;34.07;;
6763;SDS011;47432;48.760;9.178;2023-05-16T04:46:28;65.90;;;35.10;;
6763;SDS011;47432;48.760;9.178;2023-05-16T04:48:55;68.90;;;37.47;;
6763;SDS011;47432;48.760;9.178;2023-05-16T04:51:21;77.33;;;38.50;;
6763;SDS011;47432;48.760;9.178;2023-05-16T04:53:47;62.17;;;34.57;;
6763;SDS011;47432;48.760;9.178;2023-05-16T04:56:13;75.10;;;38.00;;
6763;SDS011;47432;48.760;9.178;2023-05-16T04:58:39;59.37;;;35.00;;
6763;SDS011;47432;48.760;9.178;2023-05-16T05:01:05;66.23;;;32.70;;
6763;SDS011;47432;48.760;9.178;2023-05-16T05:03:31;69.90;;;35.93;;
6763;SDS011;47432;48.760;9.178;2023-05-16T05:05:59;62.73;;;34.37;;
6763;SDS011;47432;48.760;9.178;2023-05-16T05:08:25;57.07;;;31.27;;
6763;SDS011;47432;48.760;9.178;2023-05-16T05:10:51;73.53;;;35.60;;
6763;SDS011;47432;48.760;9.178;2023-05-16T05:13:17;62.60;;;34.70;;
6763;SDS011;47432;48.760;9.178;2023-05-16T05:15:43;66.30;;;35.03;;
6763;SDS011;47432;48.760;9.178;2023-05-16T05:18:09;61.37;;;32.50;;
6763;SDS011;47432;48.760;9.178;2023-05-16T05:20:35;60.63;;;33.07;;
6763;SDS011;47432;48.760;9.178;2023-05-16T05:23:01;64.97;;;35.03;;
6763;SDS011;47432;48.760;9.178;2023-05-16T05:25:28;69.97;;;35.33;;
6763;SDS011;47432;48.760;9.178;2023-05-16T05:27:54;62.03;;;34.23;;
6763;SDS011;47432;48.760;9.178;2023-05-16T05:30:20;60.83;;;33.17;;
6763;SDS011;47432;48.760;9.178;2023-05-16T05:32:46;62.93;;;33.30;;
6763;SDS011;47432;48.760;9.178;2023-05-16T05:35:12;57.90;;;30.10;;
6763;SDS011;47432;48.760;9.178;2023-05-16T05:37:39;60.73;;;32.03;;
6763;SDS011;47432;48.760;9.178;2023-05-16T05:40:05;59.40;;;32.43;;
6763;SDS011;47432;48.760;9.178;2023-05-16T05:42:32;61.47;;;32.83;;
6763;SDS011;47432;48.760;9.178;2023-05-16T05:45:01;61.03;;;32.57;;
6763;SDS011;47432;48.760;9.178;2023-05-16T05:47:27;62.80;;;34.83;;
6763;SDS011;47432;48.760;9.178;2023-05-16T05:49:53;68.83;;;33.40;;
6763;SDS011;47432;48.760;9.178;2023-05-16T05:52:19;63.23;;;33.60;;
6763;SDS011;47432;48.760;9.178;2023-05-16T05:54:46;66.77;;;35.00;;
6763;SDS011;47432;48.760;9.178;2023-05-16T05:57:12;62.83;;;31.70;;
6763;SDS011;47432;48.760;9.178;2023-05-16T05:59:38;66.17;;;35.87;;
6763;SDS011;47432;48.760;9.178;2023-05-16T06:02:04;66.13;;;34.13;;
6763;SDS011;47432;48.760;9.178;2023-05-16T06:04:30;64.03;;;35.03;;
6763;SDS011;47432;48.760;9.178;2023-05-16T06:06:56;61.50;;;33.27;;
6763;SDS011;47432;48.760;9.178;2023-05-16T06:09:22;78.33;;;35.57;;
6763;SDS011;47432;48.760;9.178;2023-05-16T06:11:48;64.73;;;34.93;;
6763;SDS011;47432;48.760;9.178;2023-05-16T06:14:15;63.53;;;34.03;;
6763;SDS011;47432;48.760;9.178;2023-05-16T06:16:41;55.33;;;30.63;;
6763;SDS011;47432;48.760;9.178;2023-05-16T06:19:07;55.33;;;30.10;;
6763;SDS011;47432;48.760;9.178;2023-05-16T06:21:33;57.40;;;31.00;;
6763;SDS011;47432;48.760;9.178;2023-05-16T06:23:59;68.23;;;33.27;;
6763;SDS011;47432;48.760;9.178;2023-05-16T06:26:25;54.73;;;28.57;;
6763;SDS011;47432;48.760;9.178;2023-05-16T06:28:51;53.83;;;27.97;;
6763;SDS011;47432;48.760;9.178;2023-05-16T06:31:17;58.47;;;31.40;;
6763;SDS011;47432;48.760;9.178;2023-05-16T06:33:43;51.77;;;29.00;;
6763;SDS011;47432;48.760;9.178;2023-05-16T06:36:09;52.83;;;28.30;;
6763;SDS011;47432;48.760;9.178;2023-05-16T06:38:35;55.70;;;28.33;;
6763;SDS011;47432;48.760;9.178;2023-05-16T06:41:01;50.47;;;27.10;;
6763;SDS011;47432;48.760;9.178;2023-05-16T06:43:27;50.90;;;29.33;;
6763;SDS011;47432;48.760;9.178;2023-05-16T06:45:53;50.07;;;28.10;;
6763;SDS011;47432;48.760;9.178;2023-05-16T06:48:19;55.77;;;29.53;;
6763;SDS011;47432;48.760;9.178;2023-05-16T06:50:46;53.43;;;30.10;;
6763;SDS011;47432;48.760;9.178;2023-05-16T06:53:18;52.00;;;28.67;;
6763;SDS011;47432;48.760;9.178;2023-05-16T06:55:44;54.50;;;30.10;;
6763;SDS011;47432;48.760;9.178;2023-05-16T06:58:10;56.07;;;30.53;;
6763;SDS011;47432;48.760;9.178;2023-05-16T07:00:36;53.23;;;28.50;;
6763;SDS011;47432;48.760;9.178;2023-05-16T07:03:02;51.30;;;28.47;;
6763;SDS011;47432;48.760;9.178;2023-05-16T07:05:29;52.27;;;27.07;;
6763;SDS011;47432;48.760;9.178;2023-05-16T07:07:55;52.20;;;28.63;;
6763;SDS011;47432;48.760;9.178;2023-05-16T07:10:21;51.10;;;28.60;;
6763;SDS011;47432;48.760;9.178;2023-05-16T07:12:47;53.47;;;27.50;;
6763;SDS011;47432;48.760;9.178;2023-05-16T07:15:12;46.97;;;28.10;;
6763;SDS011;47432;48.760;9.178;2023-05-16T07:17:38;46.20;;;25.53;;
6763;SDS011;47432;48.760;9.178;2023-05-16T07:20:05;45.20;;;25.07;;
6763;SDS011;47432;48.760;9.178;2023-05-16T07:22:32;49.23;;;26.60;;
6763;SDS011;47432;48.760;9.178;2023-05-16T07:24:58;44.73;;;25.23;;
6763;SDS011;47432;48.760;9.178;2023-05-16T07:27:25;47.10;;;26.07;;
6763;SDS011;47432;48.760;9.178;2023-05-16T07:29:51;40.20;;;22.30;;
6763;SDS011;47432;48.760;9.178;2023-05-16T07:32:17;38.67;;;22.30;;
6763;SDS011;47432;48.760;9.178;2023-05-16T07:34:50;35.77;;;21.00;;
6763;SDS011;47432;48.760;9.178;2023-05-16T07:37:16;37.27;;;19.63;;
6763;SDS011;47432;48.760;9.178;2023-05-16T07:39:42;32.97;;;17.47;;
6763;SDS011;47432;48.760;9.178;2023-05-16T07:42:11;32.03;;;16.13;;
6763;SDS011;47432;48.760;9.178;2023-05-16T07:44:37;33.00;;;17.87;;
6763;SDS011;47432;48.760;9.178;2023-05-16T07:47:03;27.03;;;13.13;;
6763;SDS011;47432;48.760;9.178;2023-05-16T07:49:30;25.00;;;13.37;;
6763;SDS011;47432;48.760;9.178;2023-05-16T07:51:56;29.67;;;14.07;;
6763;SDS011;47432;48.760;9.178;2023-05-16T07:54:21;25.77;;;13.77;;
6763;SDS011;47432;48.760;9.178;2023-05-16T07:56:49;27.40;;;14.27;;
6763;SDS011;47432;48.760;9.178;2023-05-16T07:59:15;24.03;;;12.90;;
6763;SDS011;47432;48.760;9.178;2023-05-16T08:01:40;25.33;;;13.00;;
6763;SDS011;47432;48.760;9.178;2023-05-16T08:04:06;23.20;;;12.37;;
6763;SDS011;47432;48.760;9.178;2023-05-16T08:06:32;26.20;;;13.70;;
6763;SDS011;47432;48.760;9.178;2023-05-16T08:08:58;23.17;;;13.43;;
6763;SDS011;47432;48.760;9.178;2023-05-16T08:11:24;24.13;;;12.90;;
6763;SDS011;47432;48.760;9.178;2023-05-16T08:13:50;22.80;;;12.93;;
6763;SDS011;47432;48.760;9.178;2023-05-16T08:16:16;21.97;;;11.20;;
6763;SDS011;47432;48.760;9.178;2023-05-16T08:18:42;24.40;;;14.00;;
6763;SDS011;47432;48.760;9.178;2023-05-16T08:21:08;31.27;;;16.70;;
6763;SDS011;47432;48.760;9.178;2023-05-16T08:23:34;25.87;;;13.23;;
6763;SDS011;47432;48.760;9.178;2023-05-16T08:26:00;33.47;;;15.07;;
6763;SDS011;47432;48.760;9.178;2023-05-16T08:28:27;27.57;;;15.50;;
6763;SDS011;47432;48.760;9.178;2023-05-16T08:30:53;26.07;;;14.77;;
6763;SDS011;47432;48.760;9.178;2023-05-16T08:33:19;25.27;;;14.80;;
6763;SDS011;47432;48.760;9.178;2023-05-16T08:35:45;24.73;;;14.37;;
6763;SDS011;47432;48.760;9.178;2023-05-16T08:38:13;33.03;;;18.17;;
6763;SDS011;47432;48.760;9.178;2023-05-16T08:40:39;32.20;;;17.30;;
6763;SDS011;47432;48.760;9.178;2023-05-16T08:43:06;24.17;;;14.23;;
6763;SDS011;47432;48.760;9.178;2023-05-16T08:45:33;27.50;;;15.27;;
6763;SDS011;47432;48.760;9.178;2023-05-16T08:47:59;35.50;;;18.80;;
6763;SDS011;47432;48.760;9.178;2023-05-16T08:50:28;30.63;;;16.03;;
6763;SDS011;47432;48.760;9.178;2023-05-16T08:52:55;31.07;;;17.10;;
6763;SDS011;47432;48.760;9.178;2023-05-16T08:55:22;30.23;;;15.30;;
6763;SDS011;47432;48.760;9.178;2023-05-16T08:57:49;29.27;;;15.47;;
6763;SDS011;47432;48.760;9.178;2023-05-16T09:00:16;29.13;;;16.23;;
6763;SDS011;47432;48.760;9.178;2023-05-16T09:02:43;29.73;;;17.80;;
6763;SDS011;47432;48.760;9.178;2023-05-16T09:05:10;33.43;;;18.03;;
6763;SDS011;47432;48.760;9.178;2023-05-16T09:07:37;34.67;;;18.77;;
6763;SDS011;47432;48.760;9.178;2023-05-16T09:10:05;35.57;;;19.23;;
6763;SDS011;47432;48.760;9.178;2023-05-16T09:12:32;32.33;;;17.80;;
6763;SDS011;47432;48.760;9.178;2023-05-16T09:15:02;31.03;;;18.20;;
6763;SDS011;47432;48.760;9.178;2023-05-16T09:17:35;28.97;;;16.73;;
6763;SDS011;47432;48.760;9.178;2023-05-16T09:20:07;33.37;;;18.03;;
6763;SDS011;47432;48.760;9.178;2023-05-16T09:22:34;35.27;;;18.00;;
6763;SDS011;47432;48.760;9.178;2023-05-16T09:25:00;33.80;;;18.70;;
6763;SDS011;47432;48.760;9.178;2023-05-16T09:27:26;30.17;;;18.40;;
6763;SDS011;47432;48.760;9.178;2023-05-16T09:29:56;29.40;;;17.47;;
6763;SDS011;47432;48.760;9.178;2023-05-16T09:32:22;30.70;;;17.33;;
6763;SDS011;47432;48.760;9.178;2023-05-16T09:34:48;28.43;;;16.57;;
6763;SDS011;47432;48.760;9.178;2023-05-16T09:37:15;32.30;;;18.40;;
6763;SDS011;47432;48.760;9.178;2023-05-16T09:39:48;33.70;;;18.47;;
6763;SDS011;47432;48.760;9.178;2023-05-16T09:42:15;32.43;;;18.27;;
6763;SDS011;47432;48.760;9.178;2023-05-16T09:44:51;33.43;;;19.70;;
6763;SDS011;47432;48.760;9.178;2023-05-16T09:47:17;31.00;;;17.77;;
6763;SDS011;47432;48.760;9.178;2023-05-16T09:49:44;32.70;;;20.57;;
6763;SDS011;47432;48.760;9.178;2023-05-16T09:52:11;32.00;;;19.00;;
6763;SDS011;47432;48.760;9.178;2023-05-16T09:54:37;34.33;;;20.77;;
6763;SDS011;47432;48.760;9.178;2023-05-16T09:57:03;33.60;;;21.10;;
6763;SDS011;47432;48.760;9.178;2023-05-16T09:59:30;35.57;;;20.63;;
6763;SDS011;47432;48.760;9.178;2023-05-16T10:02:00;32.80;;;19.40;;
6763;SDS011;47432;48.760;9.178;2023-05-16T10:04:27;31.00;;;18.40;;
6763;SDS011;47432;48.760;9.178;2023-05-16T10:06:54;31.60;;;18.47;;
6763;SDS011;47432;48.760;9.178;2023-05-16T10:09:23;36.73;;;20.67;;
6763;SDS011;47432;48.760;9.178;2023-05-16T10:11:50;31.73;;;18.57;;
6763;SDS011;47432;48.760;9.178;2023-05-16T10:14:17;29.03;;;17.93;;
6763;SDS011;47432;48.760;9.178;2023-05-16T10:16:45;31.17;;;18.77;;
6763;SDS011;47432;48.760;9.178;2023-05-16T10:19:12;31.00;;;19.40;;
6763;SDS011;47432;48.760;9.178;2023-05-16T10:21:38;29.77;;;18.73;;
6763;SDS011;47432;48.760;9.178;2023-05-16T10:24:05;35.30;;;20.23;;
6763;SDS011;47432;48.760;9.178;2023-05-16T10:26:32;31.13;;;18.67;;
6763;SDS011;47432;48.760;9.178;2023-05-16T10:28:59;34.73;;;19.17;;
6763;SDS011;47432;48.760;9.178;2023-05-16T10:31:25;32.10;;;18.90;;
6763;SDS011;47432;48.760;9.178;2023-05-16T10:33:53;29.00;;;17.77;;
6763;SDS011;47432;48.760;9.178;2023-05-16T10:36:20;28.67;;;17.90;;
6763;SDS011;47432;48.760;9.178;2023-05-16T10:38:46;32.30;;;17.67;;
6763;SDS011;47432;48.760;9.178;2023-05-16T10:41:12;31.80;;;18.23;;
6763;SDS011;47432;48.760;9.178;2023-05-16T10:43:39;33.40;;;17.40;;
6763;SDS011;47432;48.760;9.178;2023-05-16T10:46:08;25.10;;;15.33;;
6763;SDS011;47432;48.760;9.178;2023-05-16T10:48:35;25.50;;;15.80;;
6763;SDS011;47432;48.760;9.178;2023-05-16T10:51:02;29.70;;;15.83;;
6763;SDS011;47432;48.760;9.178;2023-05-16T10:53:29;31.97;;;16.67;;
6763;SDS011;47432;48.760;9.178;2023-05-16T10:58:46;30.50;;;16.93;;
6763;SDS011;47432;48.760;9.178;2023-05-16T11:04:18;30.50;;;16.20;;
6763;SDS011;47432;48.760;9.178;2023-05-16T11:06:48;33.40;;;16.00;;
6763;SDS011;47432;48.760;9.178;2023-05-16T11:09:19;33.80;;;16.40;;
6763;SDS011;47432;48.760;9.178;2023-05-16T11:11:47;30.40;;;15.63;;
6763;SDS011;47432;48.760;9.178;2023-05-16T11:14:19;29.23;;;15.83;;
6763;SDS011;47432;48.760;9.178;2023-05-16T11:16:58;29.73;;;15.13;;
6763;SDS011;47432;48.760;9.178;2023-05-16T11:22:06;30.00;;;16.03;;
6763;SDS011;47432;48.760;9.178;2023-05-16T11:24:32;31.37;;;15.40;;
6763;SDS011;47432;48.760;9.178;2023-05-16T11:26:59;31.23;;;15.77;;
6763;SDS011;47432;48.760;9.178;2023-05-16T11:29:32;33.00;;;15.40;;
6763;SDS011;47432;48.760;9.178;2023-05-16T11:31:59;31.70;;;15.10;;
6763;SDS011;47432;48.760;9.178;2023-05-16T11:34:25;33.53;;;14.90;;
6763;SDS011;47432;48.760;9.178;2023-05-16T11:36:51;35.17;;;16.87;;
6763;SDS011;47432;48.760;9.178;2023-05-16T11:39:17;31.30;;;14.23;;
6763;SDS011;47432;48.760;9.178;2023-05-16T11:41:44;28.83;;;13.97;;
6763;SDS011;47432;48.760;9.178;2023-05-16T11:44:11;28.00;;;13.17;;
6763;SDS011;47432;48.760;9.178;2023-05-16T11:46:40;29.97;;;14.40;;
6763;SDS011;47432;48.760;9.178;2023-05-16T11:49:06;26.70;;;13.10;;
6763;SDS011;47432;48.760;9.178;2023-05-16T11:51:33;30.13;;;14.40;;
6763;SDS011;47432;48.760;9.178;2023-05-16T11:54:00;25.77;;;12.47;;
6763;SDS011;47432;48.760;9.178;2023-05-16T11:56:28;26.63;;;13.10;;
6763;SDS011;47432;48.760;9.178;2023-05-16T11:58:55;24.70;;;12.07;;
6763;SDS011;47432;48.760;9.178;2023-05-16T12:01:23;25.90;;;12.33;;
6763;SDS011;47432;48.760;9.178;2023-05-16T12:03:56;23.43;;;10.57;;
6763;SDS011;47432;48.760;9.178;2023-05-16T12:06:22;24.57;;;11.03;;
6763;SDS011;47432;48.760;9.178;2023-05-16T12:08:48;24.77;;;12.40;;
6763;SDS011;47432;48.760;9.178;2023-05-16T12:11:15;23.70;;;11.13;;
6763;SDS011;47432;48.760;9.178;2023-05-16T12:13:41;25.50;;;12.53;;
6763;SDS011;47432;48.760;9.178;2023-05-16T12:16:08;25.13;;;12.20;;
6763;SDS011;47432;48.760;9.178;2023-05-16T12:18:35;25.10;;;12.57;;
6763;SDS011;47432;48.760;9.178;2023-05-16T12:21:03;28.23;;;13.13;;
6763;SDS011;47432;48.760;9.178;2023-05-16T12:23:29;27.13;;;13.00;;
6763;SDS011;47432;48.760;9.178;2023-05-16T12:25:57;26.73;;;11.20;;
6763;SDS011;47432;48.760;9.178;2023-05-16T12:28:25;21.90;;;10.23;;
6763;SDS011;47432;48.760;9.178;2023-05-16T12:30:55;21.53;;;10.20;;
6763;SDS011;47432;48.760;9.178;2023-05-16T12:33:21;23.83;;;11.20;;
6763;SDS011;47432;48.760;9.178;2023-05-16T12:35:47;20.87;;;9.90;;
6763;SDS011;47432;48.760;9.178;2023-05-16T12:38:13;23.10;;;10.83;;
6763;SDS011;47432;48.760;9.178;2023-05-16T12:40:41;19.20;;;8.60;;
6763;SDS011;47432;48.760;9.178;2023-05-16T12:43:21;16.50;;;6.60;;
6763;SDS011;47432;48.760;9.178;2023-05-16T12:45:51;17.60;;;7.50;;
6763;SDS011;47432;48.760;9.178;2023-05-16T12:48:17;17.27;;;7.57;;
6763;SDS011;47432;48.760;9.178;2023-05-16T12:50:43;20.40;;;8.40;;
6763;SDS011;47432;48.760;9.178;2023-05-16T12:53:13;18.33;;;8.03;;
6763;SDS011;47432;48.760;9.178;2023-05-16T12:55:40;18.87;;;7.03;;
6763;SDS011;47432;48.760;9.178;2023-05-16T12:58:06;17.43;;;7.03;;
6763;SDS011;47432;48.760;9.178;2023-05-16T13:00:34;17.57;;;6.93;;
6763;SDS011;47432;48.760;9.178;2023-05-16T13:03:01;18.37;;;7.33;;
6763;SDS011;47432;48.760;9.178;2023-05-16T13:05:27;17.33;;;6.90;;
6763;SDS011;47432;48.760;9.178;2023-05-16T13:07:53;16.30;;;7.20;;
6763;SDS011;47432;48.760;9.178;2023-05-16T13:10:19;16.00;;;6.70;;
6763;SDS011;47432;48.760;9.178;2023-05-16T13:12:45;17.70;;;6.80;;
6763;SDS011;47432;48.760;9.178;2023-05-16T13:15:12;17.03;;;6.97;;
6763;SDS011;47432;48.760;9.178;2023-05-16T13:17:38;18.20;;;7.17;;
6763;SDS011;47432;48.760;9.178;2023-05-16T13:20:05;20.20;;;7.97;;
6763;SDS011;47432;48.760;9.178;2023-05-16T13:22:40;16.57;;;6.03;;
6763;SDS011;47432;48.760;9.178;2023-05-16T13:25:06;18.60;;;6.70;;
6763;SDS011;47432;48.760;9.178;2023-05-16T13:27:33;17.73;;;6.03;;
6763;SDS011;47432;48.760;9.178;2023-05-16T13:29:58;16.27;;;6.40;;
6763;SDS011;47432;48.760;9.178;2023-05-16T13:32:27;22.70;;;8.33;;
6763;SDS011;47432;48.760;9.178;2023-05-16T13:34:53;14.83;;;5.70;;
6763;SDS011;47432;48.760;9.178;2023-05-16T13:37:19;17.60;;;6.40;;
6763;SDS011;47432;48.760;9.178;2023-05-16T13:39:45;15.20;;;5.40;;
6763;SDS011;47432;48.760;9.178;2023-05-16T13:42:11;15.03;;;5.23;;
6763;SDS011;47432;48.760;9.178;2023-05-16T13:44:37;17.30;;;6.17;;
6763;SDS011;47432;48.760;9.178;2023-05-16T13:47:03;14.83;;;4.87;;
6763;SDS011;47432;48.760;9.178;2023-05-16T13:49:29;16.60;;;5.57;;
6763;SDS011;47432;48.760;9.178;2023-05-16T13:51:55;16.80;;;5.47;;
6763;SDS011;47432;48.760;9.178;2023-05-16T13:54:22;15.20;;;5.37;;
6763;SDS011;47432;48.760;9.178;2023-05-16T13:56:48;17.63;;;4.77;;
6763;SDS011;47432;48.760;9.178;2023-05-16T13:59:14;16.17;;;5.20;;
6763;SDS011;47432;48.760;9.178;2023-05-16T14:01:40;16.10;;;5.40;;
6763;SDS011;47432;48.760;9.178;2023-05-16T14:04:06;14.63;;;4.93;;
6763;SDS011;47432;48.760;9.178;2023-05-16T14:06:32;16.47;;;5.87;;
6763;SDS011;47432;48.760;9.178;2023-05-16T14:08:58;16.53;;;4.87;;
6763;SDS011;47432;48.760;9.178;2023-05-16T14:11:24;15.40;;;5.47;;
6763;SDS011;47432;48.760;9.178;2023-05-16T14:13:54;15.40;;;5.30;;
6763;SDS011;47432;48.760;9.178;2023-05-16T14:16:20;17.77;;;5.23;;
6763;SDS011;47432;48.760;9.178;2023-05-16T14:18:46;14.17;;;5.17;;
6763;SDS011;47432;48.760;9.178;2023-05-16T14:21:12;15.03;;;5.30;;
6763;SDS011;47432;48.760;9.178;2023-05-16T14:23:38;14.90;;;5.20;;
6763;SDS011;47432;48.760;9.178;2023-05-16T14:26:04;12.50;;;5.10;;
6763;SDS011;47432;48.760;9.178;2023-05-16T14:28:30;13.27;;;4.70;;
6763;SDS011;47432;48.760;9.178;2023-05-16T14:30:59;14.20;;;5.43;;
6763;SDS011;47432;48.760;9.178;2023-05-16T14:33:25;12.60;;;4.30;;
6763;SDS011;47432;48.760;9.178;2023-05-16T14:35:51;13.53;;;5.03;;
6763;SDS011;47432;48.760;9.178;2023-05-16T14:38:17;13.07;;;4.97;;
6763;SDS011;47432;48.760;9.178;2023-05-16T14:40:43;13.63;;;4.80;;
6763;SDS011;47432;48.760;9.178;2023-05-16T14:43:10;12.90;;;4.80;;
6763;SDS011;47432;48.760;9.178;2023-05-16T14:45:36;15.20;;;5.10;;
6763;SDS011;47432;48.760;9.178;2023-05-16T14:48:03;14.23;;;5.27;;
6763;SDS011;47432;48.760;9.178;2023-05-16T14:50:29;11.60;;;4.07;;